Portaferry, United Kingdom
Current Conditions -  °F | °C
As of 6:50 PM on Tuesday 27 Jan 2015 (Local Time) from EGAC Reporting Station
Scattered Clouds Scattered Clouds  
Wind Chill: 37°   Ceiling: Unl
Heat Index: 45°   Visibility: 6mi
Dew Point: 41°   Wind: 17mph
Humidity: 87%   Direction: 210°SSW
Pressure: 30"   Gusts: NA
Location:  54.38°N, 5.55°W
Report Text: EGAC 271850Z 21015KT 9999 FEW012 SCT045 07/05 Q1016
Loading
Personal Weather Stations






























Interactive Weather Map New forecast layout! Learn more

10-Day Weather Forecast

Advertisements
Track Severe Weather on mobile